createdAt,value
2023-02-07T00:00:03.234Z,102628.50
2023-02-07T00:05:17.467Z,102624.19
2023-02-07T00:10:20.251Z,102606.44
2023-02-07T00:15:23.059Z,102615.59
2023-02-07T00:20:27.182Z,102620.31
2023-02-07T00:25:29.938Z,102627.66
2023-02-07T00:30:32.773Z,102618.84
2023-02-07T00:35:37.295Z,102613.63
2023-02-07T00:40:41.054Z,102611.06
2023-02-07T00:45:43.845Z,102615.69
2023-02-07T00:50:48.073Z,102605.09
2023-02-07T00:55:52.280Z,102610.69
2023-02-07T01:00:55.096Z,102618.06
2023-02-07T01:05:59.324Z,102608.41
2023-02-07T01:11:04.159Z,102625.75
2023-02-07T01:16:07.431Z,102617.00
2023-02-07T01:21:17.109Z,102628.06
2023-02-07T01:26:19.922Z,102623.81
2023-02-07T01:31:24.032Z,102618.56
2023-02-07T01:36:30.031Z,102610.59
2023-02-07T01:41:32.849Z,102602.69
2023-02-07T01:46:37.045Z,102604.53
2023-02-07T01:51:46.349Z,102586.72
2023-02-07T01:56:54.862Z,102583.19
2023-02-07T02:01:58.948Z,102591.34
2023-02-07T02:07:04.975Z,102593.25
2023-02-07T02:12:47.202Z,102580.88
2023-02-07T02:18:03.826Z,102574.69
2023-02-07T02:23:19.625Z,102586.44
2023-02-07T02:28:46.535Z,102587.47
2023-02-07T02:33:58.725Z,102592.09
2023-02-07T02:39:09.250Z,102593.91
2023-02-07T02:44:18.077Z,102589.56
2023-02-07T02:49:23.984Z,102601.25
2023-02-07T02:54:31.966Z,102602.31
2023-02-07T02:59:52.337Z,102594.34
2023-02-07T03:05:13.923Z,102579.22
2023-02-07T03:10:29.657Z,102599.88
2023-02-07T03:15:39.260Z,102597.25
2023-02-07T03:20:49.210Z,102597.38
2023-02-07T03:25:53.728Z,102607.28
2023-02-07T03:31:02.641Z,102612.72
2023-02-07T03:36:15.355Z,102606.53
2023-02-07T03:41:25.572Z,102610.13
2023-02-07T03:46:35.636Z,102598.56
2023-02-07T03:51:39.796Z,102590.56
2023-02-07T03:56:42.876Z,102593.28
2023-02-07T04:01:45.692Z,102596.03
2023-02-07T04:06:49.913Z,102597.84
2023-02-07T04:11:53.426Z,102599.69
2023-02-07T04:16:56.315Z,102598.84
2023-02-07T04:22:00.435Z,102603.34
2023-02-07T04:27:03.274Z,102594.41
2023-02-07T04:32:06.436Z,102600.81
2023-02-07T04:37:10.606Z,102608.06
2023-02-07T04:42:13.579Z,102617.97
2023-02-07T04:47:16.383Z,102620.66
2023-02-07T04:52:20.493Z,102612.69
2023-02-07T04:57:23.289Z,102613.63
2023-02-07T05:02:26.212Z,102597.56
2023-02-07T05:07:30.521Z,102607.50
2023-02-07T05:12:33.434Z,102619.16
2023-02-07T05:17:38.497Z,102620.06
2023-02-07T05:22:42.861Z,102623.72
2023-02-07T05:27:45.759Z,102620.16
2023-02-07T05:33:05.999Z,102626.47
2023-02-07T05:38:12.929Z,102623.88
2023-02-07T05:43:15.859Z,102639.97
2023-02-07T05:48:18.746Z,102650.72
2023-02-07T05:53:23.060Z,102639.16
2023-02-07T05:58:25.824Z,102646.38
2023-02-07T06:03:28.622Z,102647.25
2023-02-07T06:08:32.803Z,102655.41
2023-02-07T06:13:35.710Z,102646.44
2023-02-07T06:18:38.806Z,102640.22
2023-02-07T06:23:42.948Z,102637.53
2023-02-07T06:28:45.859Z,102637.59
2023-02-07T06:33:48.607Z,102633.13
2023-02-07T06:38:55.399Z,102636.75
2023-02-07T06:43:58.290Z,102639.50
2023-02-07T06:49:01.081Z,102636.81
2023-02-07T06:54:09.566Z,102639.53
2023-02-07T06:59:12.415Z,102652.13
2023-02-07T07:04:15.616Z,102655.69
2023-02-07T07:09:19.900Z,102662.84
2023-02-07T07:14:23.048Z,102660.22
2023-02-07T07:19:25.869Z,102666.53
2023-02-07T07:24:30.021Z,102664.75
2023-02-07T07:29:32.849Z,102664.75
2023-02-07T07:34:35.792Z,102655.81
2023-02-07T07:39:40.018Z,102651.38
2023-02-07T07:44:42.916Z,102669.28
2023-02-07T07:49:45.740Z,102672.88
2023-02-07T07:54:49.853Z,102672.94
2023-02-07T07:59:52.674Z,102689.94
2023-02-07T08:04:55.666Z,102724.91
2023-02-07T08:09:59.848Z,102728.81
2023-02-07T08:15:02.828Z,102709.47
2023-02-07T08:20:07.514Z,102707.75
2023-02-07T08:25:11.776Z,102709.78
2023-02-07T08:30:15.958Z,102710.09
2023-02-07T08:35:19.165Z,102709.66
2023-02-07T08:40:23.367Z,102702.09
2023-02-07T08:45:26.494Z,102706.22
2023-02-07T08:50:29.257Z,102695.22
2023-02-07T08:55:33.423Z,102704.00
2023-02-07T09:00:36.297Z,102702.06
2023-02-07T09:05:39.201Z,102704.66
2023-02-07T09:10:45.400Z,102702.81
2023-02-07T09:15:55.476Z,102712.63
2023-02-07T09:20:58.310Z,102712.63
2023-02-07T09:26:04.679Z,102699.19
2023-02-07T09:31:11.708Z,102700.94
2023-02-07T09:36:21.032Z,102693.50
2023-02-07T09:41:31.398Z,102687.66
2023-02-07T09:46:38.126Z,102695.44
2023-02-07T09:51:41.883Z,102686.28
2023-02-07T09:56:47.395Z,102674.38
2023-02-07T10:01:54.646Z,102670.56
2023-02-07T10:07:00.180Z,102670.41
2023-02-07T10:12:17.392Z,102683.63
2023-02-07T10:17:32.430Z,102686.13
2023-02-07T10:22:45.787Z,102678.88
2023-02-07T10:28:04.349Z,102676.03
2023-02-07T10:33:15.831Z,102670.50
2023-02-07T10:38:24.983Z,102659.63
2023-02-07T10:43:32.569Z,102662.19
2023-02-07T10:48:36.833Z,102662.94
2023-02-07T10:53:54.957Z,102660.13
2023-02-07T10:59:00.842Z,102654.69
2023-02-07T11:04:22.723Z,102654.53
2023-02-07T11:09:26.388Z,102668.81
2023-02-07T11:14:31.038Z,102666.94
2023-02-07T11:19:33.927Z,102671.28
2023-02-07T11:24:38.598Z,102664.94
2023-02-07T11:29:49.593Z,102658.59
2023-02-07T11:34:55.302Z,102656.75
2023-02-07T11:40:21.170Z,102653.06
2023-02-07T11:45:25.805Z,102645.88
2023-02-07T11:50:31.250Z,102646.69
2023-02-07T11:55:36.942Z,102642.16
2023-02-07T12:00:42.452Z,102643.94
2023-02-07T12:05:51.783Z,102649.25
2023-02-07T12:10:59.032Z,102657.25
2023-02-07T12:16:08.030Z,102664.41
2023-02-07T12:21:19.657Z,102661.66
2023-02-07T12:26:25.638Z,102662.50
2023-02-07T12:31:38.644Z,102659.78
2023-02-07T12:36:47.445Z,102662.47
2023-02-07T12:41:57.196Z,102671.38
2023-02-07T12:47:08.562Z,102667.75
2023-02-07T12:52:27.204Z,102672.19
2023-02-07T12:57:38.853Z,102673.94
2023-02-07T13:02:56.523Z,102651.41
2023-02-07T13:08:11.161Z,102652.28
2023-02-07T13:13:23.336Z,102652.22
2023-02-07T13:18:35.403Z,102636.94
2023-02-07T13:23:42.706Z,102632.41
2023-02-07T13:28:51.094Z,102630.59
2023-02-07T13:33:55.549Z,102623.41
2023-02-07T13:39:08.967Z,102637.75
2023-02-07T13:44:23.514Z,102659.41
2023-02-07T13:49:41.718Z,102650.22
2023-02-07T13:54:57.076Z,102621.31
2023-02-07T14:00:15.445Z,102622.28
2023-02-07T14:05:26.318Z,102609.75
2023-02-07T14:10:39.842Z,102596.59
2023-02-07T14:16:11.257Z,102602.19
2023-02-07T14:21:45.835Z,102591.78
2023-02-07T14:27:06.380Z,102589.63
2023-02-07T14:32:28.582Z,102581.13
2023-02-07T14:37:49.324Z,102567.47
2023-02-07T14:43:02.438Z,102570.94
2023-02-07T14:48:07.657Z,102568.94
2023-02-07T14:53:15.803Z,102572.41
2023-02-07T14:58:27.482Z,102572.34
2023-02-07T15:03:34.835Z,102556.09
2023-02-07T15:08:39.116Z,102555.09
2023-02-07T15:13:45.256Z,102561.34
2023-02-07T15:18:52.772Z,102565.78
2023-02-07T15:24:01.581Z,102555.94
2023-02-07T15:29:07.305Z,102554.16
2023-02-07T15:34:17.427Z,102553.22
2023-02-07T15:39:23.956Z,102551.41
2023-02-07T15:44:28.303Z,102550.53
2023-02-07T15:49:34.044Z,102542.44
2023-02-07T15:54:45.962Z,102545.13
2023-02-07T15:59:52.188Z,102562.97
2023-02-07T16:04:55.158Z,102552.16
2023-02-07T16:10:17.907Z,102558.19
2023-02-07T16:15:27.948Z,102552.47
2023-02-07T16:20:35.219Z,102554.91
2023-02-07T16:25:39.440Z,102561.78
2023-02-07T16:30:42.595Z,102565.09
2023-02-07T16:35:45.723Z,102572.91
2023-02-07T16:40:50.455Z,102578.25
2023-02-07T16:45:54.512Z,102593.50
2023-02-07T16:50:58.212Z,102593.44
2023-02-07T16:56:03.929Z,102601.34
2023-02-07T17:01:06.854Z,102614.66
2023-02-07T17:06:14.093Z,102618.31
2023-02-07T17:11:20.693Z,102615.59
2023-02-07T17:16:25.461Z,102616.59
2023-02-07T17:21:28.272Z,102611.34
2023-02-07T17:26:32.960Z,102611.41
2023-02-07T17:31:35.913Z,102615.94
2023-02-07T17:36:40.085Z,102620.50
2023-02-07T17:41:44.352Z,102630.56
2023-02-07T17:46:47.170Z,102636.91
2023-02-07T17:51:50.245Z,102644.91
2023-02-07T17:56:55.705Z,102651.25
2023-02-07T18:01:58.535Z,102637.88
2023-02-07T18:07:01.369Z,102644.22
2023-02-07T18:12:05.802Z,102649.59
2023-02-07T18:17:08.646Z,102649.59
2023-02-07T18:22:11.810Z,102653.94
2023-02-07T18:27:17.338Z,102657.38
2023-02-07T18:32:20.159Z,102657.25
2023-02-07T18:37:23.003Z,102659.81
2023-02-07T18:42:27.406Z,102665.97
2023-02-07T18:47:32.194Z,102663.25
2023-02-07T18:52:35.100Z,102672.09
2023-02-07T18:57:39.286Z,102663.06
2023-02-07T19:02:42.145Z,102657.69
2023-02-07T19:07:45.000Z,102665.72
2023-02-07T19:12:49.161Z,102668.34
2023-02-07T19:17:51.909Z,102662.88
2023-02-07T19:22:54.669Z,102663.81
2023-02-07T19:27:58.856Z,102653.97
2023-02-07T19:33:01.640Z,102657.50
2023-02-07T19:38:04.792Z,102652.09
2023-02-07T19:43:09.143Z,102653.03
2023-02-07T19:48:11.945Z,102653.88
2023-02-07T19:53:16.123Z,102642.22
2023-02-07T19:58:20.249Z,102642.13
2023-02-07T20:03:23.048Z,102643.00
2023-02-07T20:08:26.144Z,102638.44
2023-02-07T20:13:33.435Z,102632.19
2023-02-07T20:18:36.559Z,102637.63
2023-02-07T20:23:41.654Z,102643.91
2023-02-07T20:28:46.715Z,102641.97
2023-02-07T20:33:50.101Z,102647.47
2023-02-07T20:38:53.309Z,102649.22
2023-02-07T20:43:59.202Z,102651.91
2023-02-07T20:49:04.880Z,102643.09
2023-02-07T20:54:07.966Z,102644.81
2023-02-07T20:59:17.556Z,102641.16
2023-02-07T21:04:20.363Z,102640.22
2023-02-07T21:09:23.359Z,102639.31
2023-02-07T21:14:29.609Z,102638.25
2023-02-07T21:19:32.475Z,102639.06
2023-02-07T21:24:35.631Z,102631.91
2023-02-07T21:29:39.899Z,102628.25
2023-02-07T21:34:42.882Z,102622.66
2023-02-07T21:39:45.617Z,102617.34
2023-02-07T21:44:49.786Z,102624.53
2023-02-07T21:49:52.518Z,102618.22
2023-02-07T21:54:55.344Z,102613.50
2023-02-07T21:59:59.548Z,102609.94
2023-02-07T22:05:02.347Z,102619.78
2023-02-07T22:10:05.420Z,102620.78
2023-02-07T22:15:10.031Z,102623.47
2023-02-07T22:20:13.096Z,102615.31
2023-02-07T22:25:16.055Z,102608.19
2023-02-07T22:30:20.352Z,102612.69
2023-02-07T22:35:23.096Z,102601.91
2023-02-07T22:40:25.858Z,102593.84
2023-02-07T22:45:30.546Z,102596.56
2023-02-07T22:50:33.718Z,102598.47
2023-02-07T22:55:36.436Z,102591.28
2023-02-07T23:00:41.577Z,102593.97
2023-02-07T23:05:44.558Z,102599.44
2023-02-07T23:10:47.308Z,102597.63
2023-02-07T23:15:51.566Z,102600.31
2023-02-07T23:20:54.482Z,102597.63
2023-02-07T23:25:58.693Z,102595.00
2023-02-07T23:31:02.846Z,102596.84
2023-02-07T23:36:06.930Z,102604.00
2023-02-07T23:41:10.230Z,102604.88
2023-02-07T23:46:16.157Z,102594.13
2023-02-07T23:51:19.040Z,102601.44
2023-02-07T23:56:23.367Z,102606.72
